createdAt,value
2019-04-27T00:00:04.461Z,1007.57
2019-04-27T00:01:05.158Z,1007.61
2019-04-27T00:02:05.714Z,1007.55
2019-04-27T00:03:06.083Z,1007.55
2019-04-27T00:04:04.400Z,1007.52
2019-04-27T00:05:04.420Z,1007.53
2019-04-27T00:06:07.494Z,1007.56
2019-04-27T00:07:04.383Z,1007.56
2019-04-27T00:08:04.349Z,1007.52
2019-04-27T00:09:07.561Z,1007.53
2019-04-27T00:10:04.335Z,1007.52
2019-04-27T00:11:08.490Z,1007.48
2019-04-27T00:12:05.644Z,1007.52
2019-04-27T00:13:05.773Z,1007.52
2019-04-27T00:14:04.280Z,1007.49
2019-04-27T00:15:04.269Z,1007.51
2019-04-27T00:16:09.748Z,1007.48
2019-04-27T00:17:04.248Z,1007.40
2019-04-27T00:18:04.236Z,1007.40
2019-04-27T00:19:04.223Z,1007.41
2019-04-27T00:20:04.478Z,1007.35
2019-04-27T00:21:04.223Z,1007.37
2019-04-27T00:22:04.197Z,1007.31
2019-04-27T00:23:04.180Z,1007.33
2019-04-27T00:24:04.169Z,1007.34
2019-04-27T00:25:04.155Z,1007.28
2019-04-27T00:26:04.175Z,1007.26
2019-04-27T00:27:04.133Z,1007.29
2019-04-27T00:28:05.480Z,1007.29
2019-04-27T00:29:04.116Z,1007.33
2019-04-27T00:30:04.098Z,1007.32
2019-04-27T00:31:04.121Z,1007.34
2019-04-27T00:32:04.393Z,1007.32
2019-04-27T00:33:05.336Z,1007.32
2019-04-27T00:34:04.056Z,1007.36
2019-04-27T00:35:04.043Z,1007.33
2019-04-27T00:36:04.029Z,1007.39
2019-04-27T00:37:04.045Z,1007.38
2019-04-27T00:38:04.011Z,1007.34
2019-04-27T00:39:05.306Z,1007.34
2019-04-27T00:40:03.986Z,1007.31
2019-04-27T00:41:03.974Z,1007.29
2019-04-27T00:42:03.987Z,1007.26
2019-04-27T00:43:03.949Z,1007.29
2019-04-27T00:44:03.944Z,1007.29
2019-04-27T00:45:05.486Z,1007.25
2019-04-27T00:46:04.149Z,1007.23
2019-04-27T00:47:03.931Z,1007.19
2019-04-27T00:48:03.896Z,1007.20
2019-04-27T00:49:03.885Z,1007.20
2019-04-27T00:50:03.876Z,1007.18
2019-04-27T00:51:04.352Z,1007.15
2019-04-27T00:52:03.877Z,1007.18
2019-04-27T00:53:03.841Z,1007.14
2019-04-27T00:54:04.695Z,1007.17
2019-04-27T00:55:03.817Z,1007.11
2019-04-27T00:56:04.019Z,1007.13
2019-04-27T00:57:03.820Z,1007.13
2019-04-27T00:58:04.232Z,1007.12
2019-04-27T00:59:03.775Z,1007.08
2019-04-27T01:00:05.191Z,1007.09
2019-04-27T01:01:04.152Z,1007.09
2019-04-27T01:02:03.861Z,1007.08
2019-04-27T01:03:03.906Z,1007.09
2019-04-27T01:04:03.885Z,1007.07
2019-04-27T01:05:05.763Z,1007.05
2019-04-27T01:06:03.695Z,1007.07
2019-04-27T01:07:03.711Z,1007.09
2019-04-27T01:08:03.933Z,1007.06
2019-04-27T01:09:03.669Z,1007.06
2019-04-27T01:10:05.306Z,1007.07
2019-04-27T01:11:03.638Z,1007.06
2019-04-27T01:12:03.731Z,1007.06
2019-04-27T01:13:03.615Z,1007.03
2019-04-27T01:14:03.883Z,1007.03
2019-04-27T01:15:03.732Z,1007.01
2019-04-27T01:16:03.585Z,1007.03
2019-04-27T01:17:03.881Z,1007.02
2019-04-27T01:18:11.952Z,1007.00
2019-04-27T01:19:03.555Z,1007.03
2019-04-27T01:20:03.539Z,1006.99
2019-04-27T01:21:03.529Z,1006.97
2019-04-27T01:22:03.516Z,1006.92
2019-04-27T01:23:03.526Z,1006.92
2019-04-27T01:24:03.494Z,1006.92
2019-04-27T01:25:03.481Z,1006.93
2019-04-27T01:26:03.471Z,1006.88
2019-04-27T01:27:03.458Z,1006.85
2019-04-27T01:28:03.469Z,1006.87
2019-04-27T01:29:03.434Z,1006.86
2019-04-27T01:30:03.423Z,1006.88
2019-04-27T01:31:03.412Z,1006.86
2019-04-27T01:32:03.400Z,1006.85
2019-04-27T01:33:03.413Z,1006.84
2019-04-27T01:34:03.378Z,1006.76
2019-04-27T01:35:03.371Z,1006.79
2019-04-27T01:36:03.356Z,1006.81
2019-04-27T01:37:03.344Z,1006.78
2019-04-27T01:38:03.369Z,1006.78
2019-04-27T01:39:03.329Z,1006.78
2019-04-27T01:40:03.313Z,1006.72
2019-04-27T01:41:03.306Z,1006.72
2019-04-27T01:42:03.296Z,1006.72
2019-04-27T01:43:03.341Z,1006.75
2019-04-27T01:44:03.268Z,1006.78
2019-04-27T01:45:03.254Z,1006.76
2019-04-27T01:46:03.243Z,1006.73
2019-04-27T01:47:03.237Z,1006.75
2019-04-27T01:48:03.243Z,1006.75
2019-04-27T01:49:03.213Z,1006.74
2019-04-27T01:50:03.200Z,1006.73
2019-04-27T01:51:03.186Z,1006.75
2019-04-27T01:52:03.175Z,1006.70
2019-04-27T01:53:03.189Z,1006.73
2019-04-27T01:54:03.155Z,1006.72
2019-04-27T01:55:03.141Z,1006.71
2019-04-27T01:56:03.130Z,1006.74
2019-04-27T01:57:04.294Z,1006.72
2019-04-27T01:58:03.133Z,1006.71
2019-04-27T01:59:03.099Z,1006.74
2019-04-27T02:00:03.086Z,1006.70
2019-04-27T02:01:03.074Z,1006.69
2019-04-27T02:02:03.062Z,1006.71
2019-04-27T02:03:03.080Z,1006.69
2019-04-27T02:04:03.041Z,1006.71
2019-04-27T02:05:03.033Z,1006.72
2019-04-27T02:06:03.018Z,1006.70
2019-04-27T02:07:03.006Z,1006.72
2019-04-27T02:08:03.021Z,1006.69
2019-04-27T02:09:02.995Z,1006.70
2019-04-27T02:10:02.974Z,1006.67
2019-04-27T02:11:02.969Z,1006.65
2019-04-27T02:12:02.952Z,1006.63
2019-04-27T02:13:02.961Z,1006.59
2019-04-27T02:14:02.927Z,1006.63
2019-04-27T02:15:02.917Z,1006.59
2019-04-27T02:16:02.905Z,1006.60
2019-04-27T02:17:02.895Z,1006.60
2019-04-27T02:18:02.907Z,1006.59
2019-04-27T02:19:02.874Z,1006.57
2019-04-27T02:20:02.862Z,1006.59
2019-04-27T02:21:02.848Z,1006.54
2019-04-27T02:22:02.840Z,1006.50
2019-04-27T02:23:02.932Z,1006.50
2019-04-27T02:24:02.825Z,1006.51
2019-04-27T02:25:02.803Z,1006.53
2019-04-27T02:26:02.794Z,1006.47
2019-04-27T02:27:02.781Z,1006.47
2019-04-27T02:28:02.795Z,1006.49
2019-04-27T02:29:02.782Z,1006.47
2019-04-27T02:30:02.747Z,1006.48
2019-04-27T02:31:02.738Z,1006.46
2019-04-27T02:32:03.038Z,1006.47
2019-04-27T02:33:02.740Z,1006.44
2019-04-27T02:34:02.702Z,1006.43
2019-04-27T02:35:02.719Z,1006.42
2019-04-27T02:36:02.705Z,1006.40
2019-04-27T02:37:02.986Z,1006.48
2019-04-27T02:38:02.680Z,1006.47
2019-04-27T02:39:02.647Z,1006.46
2019-04-27T02:40:02.641Z,1006.48
2019-04-27T02:41:02.627Z,1006.50
2019-04-27T02:42:02.751Z,1006.55
2019-04-27T02:43:02.630Z,1006.50
2019-04-27T02:44:02.593Z,1006.48
2019-04-27T02:45:03.098Z,1006.49
2019-04-27T02:46:02.568Z,1006.46
2019-04-27T02:47:02.570Z,1006.51
2019-04-27T02:48:02.608Z,1006.49
2019-04-27T02:49:06.311Z,1006.48
2019-04-27T02:50:02.521Z,1006.51
2019-04-27T02:51:02.510Z,1006.46
2019-04-27T02:52:02.506Z,1006.48
2019-04-27T02:53:03.251Z,1006.48
2019-04-27T02:54:02.505Z,1006.44
2019-04-27T02:55:02.469Z,1006.41
2019-04-27T02:56:02.455Z,1006.37
2019-04-27T02:57:02.449Z,1006.45
2019-04-27T02:58:02.464Z,1006.43
2019-04-27T02:59:02.421Z,1006.40
2019-04-27T03:00:02.435Z,1006.40
2019-04-27T03:01:02.397Z,1006.36
2019-04-27T03:02:02.389Z,1006.40
2019-04-27T03:03:02.566Z,1006.39
2019-04-27T03:04:02.372Z,1006.40
2019-04-27T03:05:02.367Z,1006.43
2019-04-27T03:06:02.341Z,1006.46
2019-04-27T03:07:02.330Z,1006.37
2019-04-27T03:08:02.352Z,1006.34
2019-04-27T03:09:02.310Z,1006.35
2019-04-27T03:10:02.904Z,1006.33
2019-04-27T03:11:02.285Z,1006.34
2019-04-27T03:12:02.278Z,1006.34
2019-04-27T03:13:02.311Z,1006.31
2019-04-27T03:14:02.252Z,1006.30
2019-04-27T03:15:02.238Z,1006.26
2019-04-27T03:16:02.229Z,1006.28
2019-04-27T03:17:02.238Z,1006.23
2019-04-27T03:18:02.231Z,1006.17
2019-04-27T03:19:13.478Z,1006.20
2019-04-27T03:20:03.187Z,1006.24
2019-04-27T03:21:02.176Z,1006.24
2019-04-27T03:22:02.165Z,1006.23
2019-04-27T03:23:02.269Z,1006.24
2019-04-27T03:24:02.138Z,1006.26
2019-04-27T03:25:02.150Z,1006.20
2019-04-27T03:26:02.119Z,1006.22
2019-04-27T03:27:02.104Z,1006.20
2019-04-27T03:28:02.626Z,1006.12
2019-04-27T03:29:02.085Z,1006.17
2019-04-27T03:30:02.167Z,1006.16
2019-04-27T03:31:02.944Z,1006.11
2019-04-27T03:32:02.305Z,1006.12
2019-04-27T03:33:03.387Z,1006.15
2019-04-27T03:34:05.058Z,1006.08
2019-04-27T03:35:03.443Z,1006.09
2019-04-27T03:36:03.083Z,1006.09
2019-04-27T03:37:01.993Z,1006.10
2019-04-27T03:38:02.010Z,1006.11
2019-04-27T03:39:01.968Z,1006.01
2019-04-27T03:40:01.961Z,1006.01
2019-04-27T03:41:01.952Z,1005.98
2019-04-27T03:42:01.942Z,1005.99
2019-04-27T03:43:01.950Z,1006.01
2019-04-27T03:44:01.914Z,1005.96
2019-04-27T03:45:01.905Z,1005.93
2019-04-27T03:46:01.892Z,1005.92
2019-04-27T03:47:01.880Z,1005.91
2019-04-27T03:48:01.893Z,1005.92
2019-04-27T03:49:01.856Z,1005.91
2019-04-27T03:50:01.848Z,1005.83
2019-04-27T03:51:01.835Z,1005.85
2019-04-27T03:52:03.059Z,1005.78
2019-04-27T03:53:01.810Z,1005.80
2019-04-27T03:54:01.824Z,1005.78
2019-04-27T03:55:01.796Z,1005.77
2019-04-27T03:56:01.780Z,1005.77
2019-04-27T03:57:02.367Z,1005.79
2019-04-27T03:58:01.757Z,1005.75
2019-04-27T03:59:01.778Z,1005.72
2019-04-27T04:00:01.756Z,1005.74
2019-04-27T04:01:01.724Z,1005.68
2019-04-27T04:02:02.384Z,1005.70
2019-04-27T04:03:01.698Z,1005.70
2019-04-27T04:04:01.731Z,1005.67
2019-04-27T04:05:01.684Z,1005.64
2019-04-27T04:06:01.666Z,1005.62
2019-04-27T04:07:01.658Z,1005.60
2019-04-27T04:08:01.642Z,1005.60
2019-04-27T04:09:01.652Z,1005.52
2019-04-27T04:10:01.635Z,1005.50
2019-04-27T04:11:01.613Z,1005.46
2019-04-27T04:12:02.253Z,1005.48
2019-04-27T04:13:01.947Z,1005.44
2019-04-27T04:14:01.597Z,1005.45
2019-04-27T04:15:01.569Z,1005.48
2019-04-27T04:16:01.553Z,1005.47
2019-04-27T04:17:02.818Z,1005.48
2019-04-27T04:18:01.531Z,1005.48
2019-04-27T04:19:01.625Z,1005.51
2019-04-27T04:20:01.943Z,1005.55
2019-04-27T04:21:01.498Z,1005.54
2019-04-27T04:22:01.484Z,1005.51
2019-04-27T04:23:03.259Z,1005.51
2019-04-27T04:24:01.559Z,1005.49
2019-04-27T04:25:01.449Z,1005.43
2019-04-27T04:26:01.441Z,1005.38
2019-04-27T04:27:01.427Z,1005.44
2019-04-27T04:28:01.419Z,1005.43
2019-04-27T04:29:01.440Z,1005.49
2019-04-27T04:30:01.457Z,1005.47
2019-04-27T04:31:01.385Z,1005.51
2019-04-27T04:32:01.376Z,1005.47
2019-04-27T04:33:01.362Z,1005.49
2019-04-27T04:34:01.372Z,1005.45
2019-04-27T04:35:01.528Z,1005.50
2019-04-27T04:36:01.325Z,1005.47
2019-04-27T04:37:01.314Z,1005.51
2019-04-27T04:38:01.323Z,1005.46
2019-04-27T04:39:01.320Z,1005.47
2019-04-27T04:40:01.282Z,1005.46
2019-04-27T04:41:01.341Z,1005.47
2019-04-27T04:42:01.260Z,1005.53
2019-04-27T04:43:03.248Z,1005.53
2019-04-27T04:44:01.285Z,1005.53
2019-04-27T04:45:01.228Z,1005.47
2019-04-27T04:46:01.217Z,1005.51
2019-04-27T04:47:01.204Z,1005.51
2019-04-27T04:48:01.191Z,1005.54
2019-04-27T04:49:01.209Z,1005.53
2019-04-27T04:50:11.112Z,1005.55
2019-04-27T04:51:01.177Z,1005.55
2019-04-27T04:52:01.151Z,1005.57
2019-04-27T04:53:01.239Z,1005.60
2019-04-27T04:54:01.164Z,1005.52
2019-04-27T04:55:02.544Z,1005.53
2019-04-27T04:56:01.101Z,1005.52
2019-04-27T04:57:01.088Z,1005.50
2019-04-27T04:58:01.078Z,1005.56
2019-04-27T04:59:01.163Z,1005.57
2019-04-27T05:00:01.058Z,1005.57
2019-04-27T05:01:01.842Z,1005.58
2019-04-27T05:02:02.340Z,1005.58
2019-04-27T05:03:01.030Z,1005.57
2019-04-27T05:04:01.034Z,1005.60
2019-04-27T05:05:01.003Z,1005.56
2019-04-27T05:06:00.993Z,1005.54
2019-04-27T05:07:00.975Z,1005.58
2019-04-27T05:08:00.963Z,1005.57
2019-04-27T05:09:00.987Z,1005.53
2019-04-27T05:10:00.948Z,1005.53
2019-04-27T05:11:00.934Z,1005.56
2019-04-27T05:12:00.922Z,1005.51
2019-04-27T05:13:00.909Z,1005.54
2019-04-27T05:14:01.536Z,1005.55
2019-04-27T05:15:00.886Z,1005.48
2019-04-27T05:16:00.873Z,1005.51
2019-04-27T05:17:00.897Z,1005.48
2019-04-27T05:18:00.852Z,1005.50
2019-04-27T05:19:00.863Z,1005.49
2019-04-27T05:20:00.827Z,1005.51
2019-04-27T05:21:00.822Z,1005.53
2019-04-27T05:22:00.806Z,1005.50
2019-04-27T05:23:00.795Z,1005.55
2019-04-27T05:24:00.938Z,1005.51
2019-04-27T05:25:00.773Z,1005.54
2019-04-27T05:26:00.760Z,1005.52
2019-04-27T05:27:00.749Z,1005.49
2019-04-27T05:28:00.737Z,1005.48
2019-04-27T05:29:00.752Z,1005.45
2019-04-27T05:30:00.715Z,1005.48
2019-04-27T05:31:00.719Z,1005.50
2019-04-27T05:32:00.696Z,1005.42
2019-04-27T05:33:00.680Z,1005.47
2019-04-27T05:34:00.694Z,1005.48
2019-04-27T05:35:00.660Z,1005.49
2019-04-27T05:36:00.648Z,1005.48
2019-04-27T05:37:01.148Z,1005.48
2019-04-27T05:38:07.040Z,1005.49
2019-04-27T05:39:00.645Z,1005.47
2019-04-27T05:40:00.619Z,1005.46
2019-04-27T05:41:00.591Z,1005.45
2019-04-27T05:42:00.578Z,1005.45
2019-04-27T05:43:00.568Z,1005.42
2019-04-27T05:44:03.175Z,1005.42
2019-04-27T05:45:00.549Z,1005.43
2019-04-27T05:46:01.099Z,1005.44
2019-04-27T05:47:00.521Z,1005.46
2019-04-27T05:48:00.751Z,1005.42
2019-04-27T05:49:06.054Z,1005.38
2019-04-27T05:50:00.492Z,1005.42
2019-04-27T05:51:02.043Z,1005.46
2019-04-27T05:52:00.465Z,1005.44
2019-04-27T05:53:00.454Z,1005.39
2019-04-27T05:54:00.467Z,1005.39
2019-04-27T05:55:00.432Z,1005.40
2019-04-27T05:56:00.450Z,1005.38
2019-04-27T05:57:00.409Z,1005.40
2019-04-27T05:58:00.400Z,1005.39
2019-04-27T05:59:00.464Z,1005.39
2019-04-27T06:00:02.365Z,1005.33
2019-04-27T06:01:00.367Z,1005.35
2019-04-27T06:02:00.355Z,1005.35
2019-04-27T06:03:00.341Z,1005.36
2019-04-27T06:04:00.358Z,1005.34
2019-04-27T06:05:00.383Z,1005.35
2019-04-27T06:06:01.776Z,1005.38
2019-04-27T06:07:01.018Z,1005.33
2019-04-27T06:08:00.287Z,1005.33
2019-04-27T06:09:00.298Z,1005.29
2019-04-27T06:10:00.261Z,1005.31
2019-04-27T06:11:00.252Z,1005.30
2019-04-27T06:12:00.245Z,1005.32
2019-04-27T06:13:00.230Z,1005.30
2019-04-27T06:14:00.239Z,1005.30
2019-04-27T06:15:00.294Z,1005.32
2019-04-27T06:16:00.196Z,1005.29
2019-04-27T06:17:00.190Z,1005.29
2019-04-27T06:18:00.171Z,1005.31
2019-04-27T06:19:00.209Z,1005.25
2019-04-27T06:20:00.153Z,1005.31
2019-04-27T06:21:00.137Z,1005.27
2019-04-27T06:22:01.424Z,1005.26
2019-04-27T06:23:00.115Z,1005.24
2019-04-27T06:24:00.129Z,1005.23
2019-04-27T06:25:00.522Z,1005.25
2019-04-27T06:26:01.821Z,1005.19
2019-04-27T06:27:00.072Z,1005.18
2019-04-27T06:28:00.058Z,1005.19
2019-04-27T06:29:00.073Z,1005.22
2019-04-27T06:30:00.036Z,1005.21
2019-04-27T06:31:00.023Z,1005.23
2019-04-27T06:32:00.015Z,1005.23
2019-04-27T06:33:00.004Z,1005.21
2019-04-27T06:34:00.015Z,1005.20
2019-04-27T06:34:59.982Z,1005.19
2019-04-27T06:36:01.821Z,1005.19
2019-04-27T06:37:00.094Z,1005.19
2019-04-27T06:37:59.948Z,1005.14
2019-04-27T06:38:59.958Z,1005.15
2019-04-27T06:40:00.016Z,1005.14
2019-04-27T06:41:01.405Z,1005.13
2019-04-27T06:42:01.270Z,1005.10
2019-04-27T06:42:59.893Z,1005.14
2019-04-27T06:43:59.902Z,1005.07
2019-04-27T06:45:00.192Z,1005.05
2019-04-27T06:45:59.856Z,1005.06
2019-04-27T06:46:59.846Z,1005.06
2019-04-27T06:47:59.833Z,1005.05
2019-04-27T06:48:59.848Z,1005.06
2019-04-27T06:49:59.811Z,1005.04
2019-04-27T06:51:05.041Z,1005.04
2019-04-27T06:52:00.790Z,1005.04
2019-04-27T06:52:59.777Z,1005.06
2019-04-27T06:53:59.790Z,1005.08
2019-04-27T06:55:00.623Z,1005.01
2019-04-27T06:55:59.749Z,1005.04
2019-04-27T06:56:59.732Z,1005.04
2019-04-27T06:57:59.722Z,1005.03
2019-04-27T06:58:59.854Z,1005.02
2019-04-27T06:59:59.699Z,1005.05
2019-04-27T07:00:59.692Z,1005.07
2019-04-27T07:02:00.866Z,1005.04
2019-04-27T07:02:59.799Z,1005.06
2019-04-27T07:03:59.884Z,1005.02
2019-04-27T07:05:00.560Z,1005.04
2019-04-27T07:05:59.632Z,1005.03
2019-04-27T07:07:01.720Z,1005.02
2019-04-27T07:07:59.629Z,1005.04
2019-04-27T07:08:59.879Z,1005.03
2019-04-27T07:09:59.604Z,1005.04
2019-04-27T07:10:59.622Z,1005.01
2019-04-27T07:11:59.608Z,1005.05
2019-04-27T07:12:59.812Z,1005.05
2019-04-27T07:13:59.589Z,1005.00
2019-04-27T07:14:59.533Z,1005.02
2019-04-27T07:15:59.729Z,1005.01
2019-04-27T07:16:59.509Z,1004.99
2019-04-27T07:17:59.498Z,1004.99
2019-04-27T07:18:59.510Z,1005.00
2019-04-27T07:19:59.677Z,1004.97
2019-04-27T07:20:59.465Z,1004.98
2019-04-27T07:21:59.598Z,1004.93
2019-04-27T07:22:59.580Z,1004.95
2019-04-27T07:23:59.768Z,1004.97
2019-04-27T07:24:59.423Z,1005.04
2019-04-27T07:25:59.865Z,1005.01
2019-04-27T07:26:59.795Z,1005.00
2019-04-27T07:27:59.404Z,1005.04
2019-04-27T07:28:59.761Z,1005.02
2019-04-27T07:30:01.727Z,1005.02
2019-04-27T07:30:59.358Z,1005.07
2019-04-27T07:31:59.785Z,1005.03
2019-04-27T07:33:00.412Z,1005.01
2019-04-27T07:33:59.603Z,1005.05
2019-04-27T07:34:59.310Z,1005.01
2019-04-27T07:35:59.303Z,1004.97
2019-04-27T07:36:59.832Z,1004.99
2019-04-27T07:37:59.358Z,1005.00
2019-04-27T07:38:59.984Z,1004.99
2019-04-27T07:39:59.379Z,1004.98
2019-04-27T07:40:59.253Z,1004.99
2019-04-27T07:41:59.238Z,1004.95
2019-04-27T07:42:59.439Z,1004.91
2019-04-27T07:43:59.238Z,1004.89
2019-04-27T07:44:59.569Z,1004.91
2019-04-27T07:45:59.185Z,1004.90
2019-04-27T07:46:59.499Z,1004.92
2019-04-27T07:47:59.233Z,1004.90
2019-04-27T07:48:59.563Z,1004.90
2019-04-27T07:49:59.591Z,1004.89
2019-04-27T07:50:59.150Z,1004.90
2019-04-27T07:51:59.118Z,1004.94
2019-04-27T07:52:59.113Z,1004.97
2019-04-27T07:53:59.127Z,1004.98
2019-04-27T07:54:59.086Z,1004.94
2019-04-27T07:55:59.329Z,1004.94
2019-04-27T07:56:59.069Z,1004.95
2019-04-27T07:57:59.509Z,1004.96
2019-04-27T07:58:59.552Z,1004.98
2019-04-27T07:59:59.681Z,1004.96
2019-04-27T08:00:59.524Z,1004.98
2019-04-27T08:01:59.189Z,1004.97
2019-04-27T08:02:58.996Z,1004.92
2019-04-27T08:03:59.178Z,1004.93
2019-04-27T08:04:59.606Z,1004.94
2019-04-27T08:05:58.976Z,1004.94
2019-04-27T08:06:59.559Z,1004.97
2019-04-27T08:08:00.233Z,1004.94
2019-04-27T08:08:59.415Z,1004.92
2019-04-27T08:10:01.108Z,1004.96
2019-04-27T08:10:59.490Z,1004.89
2019-04-27T08:11:58.895Z,1004.97
2019-04-27T08:12:59.730Z,1004.96
2019-04-27T08:13:58.987Z,1004.89
2019-04-27T08:15:00.046Z,1004.92
2019-04-27T08:15:59.092Z,1004.95
2019-04-27T08:16:58.840Z,1004.92
2019-04-27T08:17:59.269Z,1004.92
2019-04-27T08:19:00.032Z,1004.90
2019-04-27T08:19:59.579Z,1004.88
2019-04-27T08:20:59.136Z,1004.90
2019-04-27T08:21:59.605Z,1004.87
2019-04-27T08:22:59.861Z,1004.87
2019-04-27T08:23:58.789Z,1004.90
2019-04-27T08:24:59.521Z,1004.85
2019-04-27T08:25:58.971Z,1004.82
2019-04-27T08:26:59.423Z,1004.82
2019-04-27T08:28:00.318Z,1004.82
2019-04-27T08:28:58.732Z,1004.84
2019-04-27T08:29:58.872Z,1004.81
2019-04-27T08:31:00.367Z,1004.80
2019-04-27T08:31:58.681Z,1004.77
2019-04-27T08:32:59.373Z,1004.75
2019-04-27T08:34:00.039Z,1004.73
2019-04-27T08:34:59.496Z,1004.75
2019-04-27T08:35:59.147Z,1004.73
2019-04-27T08:37:00.730Z,1004.71
2019-04-27T08:37:59.387Z,1004.70
2019-04-27T08:38:58.917Z,1004.66
2019-04-27T08:39:59.228Z,1004.63
2019-04-27T08:40:59.245Z,1004.58
2019-04-27T08:41:59.467Z,1004.58
2019-04-27T08:42:59.260Z,1004.54
2019-04-27T08:43:58.782Z,1004.56
2019-04-27T08:44:59.408Z,1004.55
2019-04-27T08:46:00.312Z,1004.51
2019-04-27T08:46:59.653Z,1004.50
2019-04-27T08:47:59.483Z,1004.49
2019-04-27T08:48:58.772Z,1004.48
2019-04-27T08:49:59.119Z,1004.49
2019-04-27T08:50:59.336Z,1004.45
2019-04-27T08:52:01.654Z,1004.47
2019-04-27T08:52:58.452Z,1004.43
2019-04-27T08:53:59.104Z,1004.49
2019-04-27T08:54:59.404Z,1004.48
2019-04-27T08:55:59.189Z,1004.39
2019-04-27T08:56:59.663Z,1004.39
2019-04-27T08:57:58.779Z,1004.39
2019-04-27T08:58:59.495Z,1004.41
2019-04-27T08:59:59.715Z,1004.37
2019-04-27T09:00:59.039Z,1004.39
2019-04-27T09:01:58.797Z,1004.41
2019-04-27T09:02:59.500Z,1004.39
2019-04-27T09:03:59.247Z,1004.41
2019-04-27T09:04:59.608Z,1004.42
2019-04-27T09:05:59.004Z,1004.41
2019-04-27T09:06:59.747Z,1004.41
2019-04-27T09:07:59.693Z,1004.36
2019-04-27T09:08:59.303Z,1004.40
2019-04-27T09:09:59.634Z,1004.31
2019-04-27T09:10:58.991Z,1004.36
2019-04-27T09:11:59.466Z,1004.33
2019-04-27T09:12:58.908Z,1004.33
2019-04-27T09:13:58.939Z,1004.34
2019-04-27T09:14:59.213Z,1004.35
2019-04-27T09:15:59.935Z,1004.31
2019-04-27T09:17:02.211Z,1004.31
2019-04-27T09:17:58.864Z,1004.30
2019-04-27T09:18:59.723Z,1004.27
2019-04-27T09:19:59.143Z,1004.28
2019-04-27T09:20:58.959Z,1004.27
2019-04-27T09:22:10.315Z,1004.30
2019-04-27T09:22:59.250Z,1004.23
2019-04-27T09:23:59.305Z,1004.22
2019-04-27T09:24:59.506Z,1004.19
2019-04-27T09:25:59.438Z,1004.22
2019-04-27T09:26:59.601Z,1004.19
2019-04-27T09:27:59.714Z,1004.19
2019-04-27T09:28:59.570Z,1004.19
2019-04-27T09:29:59.027Z,1004.15
2019-04-27T09:30:58.757Z,1004.16
2019-04-27T09:32:01.515Z,1004.16
2019-04-27T09:32:57.992Z,1004.14
2019-04-27T09:33:57.982Z,1004.13
2019-04-27T09:34:57.995Z,1004.14
2019-04-27T09:35:57.961Z,1004.16
2019-04-27T09:36:57.947Z,1004.13
2019-04-27T09:37:57.939Z,1004.09
2019-04-27T09:38:57.924Z,1004.13
2019-04-27T09:39:58.132Z,1004.06
2019-04-27T09:40:58.181Z,1004.07
2019-04-27T09:41:57.896Z,1004.09
2019-04-27T09:42:57.879Z,1004.12
2019-04-27T09:43:57.869Z,1004.09
2019-04-27T09:44:57.886Z,1004.07
2019-04-27T09:45:57.849Z,1004.07
2019-04-27T09:46:57.836Z,1004.14
2019-04-27T09:47:57.829Z,1004.11
2019-04-27T09:48:57.816Z,1004.11
2019-04-27T09:49:57.828Z,1004.09
2019-04-27T09:50:57.794Z,1004.08
2019-04-27T09:51:57.785Z,1004.13
2019-04-27T09:52:57.767Z,1004.07
2019-04-27T09:53:57.757Z,1004.08
2019-04-27T09:54:57.770Z,1004.11
2019-04-27T09:55:57.735Z,1004.08
2019-04-27T09:56:57.726Z,1004.09
2019-04-27T09:57:57.713Z,1004.05
2019-04-27T09:58:57.702Z,1004.12
2019-04-27T09:59:57.712Z,1004.06
2019-04-27T10:00:57.690Z,1004.07
2019-04-27T10:01:57.828Z,1004.07
2019-04-27T10:02:57.657Z,1004.06
2019-04-27T10:03:57.646Z,1004.06
2019-04-27T10:04:57.662Z,1004.05
2019-04-27T10:05:57.628Z,1004.04
2019-04-27T10:06:57.616Z,1004.05
2019-04-27T10:07:57.602Z,1004.00
2019-04-27T10:08:57.765Z,1004.05
2019-04-27T10:09:57.602Z,1004.14
2019-04-27T10:10:57.571Z,1004.03
2019-04-27T10:11:57.558Z,1004.02
2019-04-27T10:12:57.544Z,1004.10
2019-04-27T10:13:57.535Z,1004.02
2019-04-27T10:14:57.552Z,1004.02
2019-04-27T10:15:57.511Z,1003.97
2019-04-27T10:16:57.502Z,1004.00
2019-04-27T10:17:57.839Z,1003.98
2019-04-27T10:18:57.484Z,1003.94
2019-04-27T10:19:57.491Z,1003.94
2019-04-27T10:21:01.868Z,1003.90
2019-04-27T10:21:57.447Z,1003.91
2019-04-27T10:22:57.475Z,1003.90
2019-04-27T10:23:57.423Z,1003.97
2019-04-27T10:24:57.435Z,1003.96
2019-04-27T10:25:57.402Z,1003.95
2019-04-27T10:26:57.389Z,1003.98
2019-04-27T10:27:57.380Z,1004.09
2019-04-27T10:28:57.366Z,1004.59
2019-04-27T10:29:58.510Z,1004.62
2019-04-27T10:30:57.378Z,1004.61
2019-04-27T10:31:57.345Z,1004.51
2019-04-27T10:32:57.322Z,1004.63
2019-04-27T10:33:57.318Z,1004.59
2019-04-27T10:34:57.322Z,1004.62
2019-04-27T10:35:57.288Z,1004.67
2019-04-27T10:36:57.277Z,1004.68
2019-04-27T10:37:57.264Z,1004.70
2019-04-27T10:38:57.256Z,1004.80
2019-04-27T10:39:57.267Z,1004.79
2019-04-27T10:40:57.233Z,1004.81
2019-04-27T10:41:57.220Z,1004.82
2019-04-27T10:42:57.213Z,1004.83
2019-04-27T10:43:57.202Z,1004.87
2019-04-27T10:44:57.212Z,1004.87
2019-04-27T10:45:57.179Z,1004.84
2019-04-27T10:46:57.167Z,1004.78
2019-04-27T10:47:57.158Z,1004.76
2019-04-27T10:48:57.146Z,1004.83
2019-04-27T10:49:57.157Z,1004.90
2019-04-27T10:50:57.121Z,1004.86
2019-04-27T10:51:57.113Z,1004.93
2019-04-27T10:52:59.353Z,1004.94
2019-04-27T10:53:57.087Z,1005.03
2019-04-27T10:54:57.441Z,1004.98
2019-04-27T10:55:57.071Z,1004.95
2019-04-27T10:56:57.057Z,1005.04
2019-04-27T10:57:57.045Z,1005.01
2019-04-27T10:58:57.042Z,1004.99
2019-04-27T10:59:57.061Z,1004.97
2019-04-27T11:00:58.444Z,1004.95
2019-04-27T11:01:56.997Z,1004.94
2019-04-27T11:02:58.379Z,1005.03
2019-04-27T11:03:57.525Z,1005.00
2019-04-27T11:04:56.990Z,1004.98
2019-04-27T11:05:57.062Z,1005.00
2019-04-27T11:06:56.945Z,1004.99
2019-04-27T11:07:56.932Z,1004.96
2019-04-27T11:08:56.921Z,1004.95
2019-04-27T11:09:56.935Z,1004.97
2019-04-27T11:10:56.898Z,1004.95
2019-04-27T11:11:56.890Z,1004.98
2019-04-27T11:12:56.887Z,1004.96
2019-04-27T11:14:00.726Z,1005.00
2019-04-27T11:14:56.878Z,1005.02
2019-04-27T11:15:56.850Z,1005.01
2019-04-27T11:16:56.831Z,1005.01
2019-04-27T11:17:56.823Z,1005.02
2019-04-27T11:18:58.721Z,1005.02
2019-04-27T11:19:56.824Z,1004.97
2019-04-27T11:20:56.859Z,1004.99
2019-04-27T11:21:56.777Z,1005.01
2019-04-27T11:23:06.946Z,1004.98
2019-04-27T11:23:56.757Z,1005.03
2019-04-27T11:24:56.780Z,1005.04
2019-04-27T11:25:56.734Z,1005.06
2019-04-27T11:26:56.801Z,1005.05
2019-04-27T11:27:57.817Z,1005.07
2019-04-27T11:28:56.701Z,1005.09
2019-04-27T11:29:56.709Z,1005.04
2019-04-27T11:30:56.678Z,1005.04
2019-04-27T11:31:56.664Z,1005.10
2019-04-27T11:32:59.106Z,1005.16
2019-04-27T11:33:56.743Z,1005.12
2019-04-27T11:34:56.653Z,1005.11
2019-04-27T11:35:56.619Z,1005.11
2019-04-27T11:36:56.611Z,1005.11
2019-04-27T11:37:56.597Z,1005.10
2019-04-27T11:38:56.639Z,1005.05
2019-04-27T11:39:56.599Z,1005.07
2019-04-27T11:40:56.758Z,1005.09
2019-04-27T11:41:56.552Z,1005.11
2019-04-27T11:42:57.364Z,1005.07
2019-04-27T11:43:56.693Z,1005.07
2019-04-27T11:44:58.284Z,1005.10
2019-04-27T11:45:56.508Z,1005.09
2019-04-27T11:46:56.497Z,1005.12
2019-04-27T11:47:57.156Z,1005.09
2019-04-27T11:48:58.328Z,1005.11
2019-04-27T11:49:57.924Z,1005.10
2019-04-27T11:50:56.452Z,1005.10
2019-04-27T11:51:56.763Z,1005.10
2019-04-27T11:52:56.741Z,1005.11
2019-04-27T11:53:56.425Z,1005.04
2019-04-27T11:54:56.432Z,1005.05
2019-04-27T11:55:56.396Z,1005.16
2019-04-27T11:56:56.388Z,1005.15
2019-04-27T11:57:56.374Z,1005.14
2019-04-27T11:58:56.366Z,1005.21
2019-04-27T11:59:58.032Z,1005.11
2019-04-27T12:00:56.340Z,1005.19
2019-04-27T12:01:56.338Z,1005.19
2019-04-27T12:02:56.824Z,1005.18
2019-04-27T12:03:56.315Z,1005.13
2019-04-27T12:04:56.320Z,1005.11